Thunder radar more information blitzortung!


Radar de pluja more information rain snow radar


Visita la nostra xarxa de llocs de meteo:

Template documentation
and downloads

And another site



No particular awareness of the weather is required.    There are no Weather-warnings

Nearby METAR Reports

   
LEBL - Barcelona Airpor, Spain
Distancia fins a l'estacio: SSE 30 km
Actualitzacio: 16-01-2018 14:00
Clar  
Clar  
   Vent: NW 7.4 km/h
Vent: NW 7.4 km/h
Temperatura: 16°C
Punt de rosada: 6°C
Humitat: 52%
Barometre: 1019 hPa
Visibilitat: More than 10 km
Cloud details: Clar ft
LEBL 161300Z 31004KT 240V350 CAVOK 16/06 Q1019 NOSIG
LELL - Sabadell, Spain
Distancia fins a l'estacio: WNW 14 km
Actualitzacio: 16-01-2018 14:00
Clar  
Clar  
   Vent: West 25.9 km/h
Vent: West 25.9 km/h
Temperatura: 15°C
Punt de rosada: 7°C
Humitat: 59%
Barometre: 1019 hPa
Visibilitat: More than 10 km
Cloud details: Clar ft
LELL 161300Z 27014KT 240V300 CAVOK 15/07 Q1019
LEGE - Girona/Costa Bra, Spain
Distancia fins a l'estacio: NE 65 km
Actualitzacio: 16-01-2018 14:00
Nuvols dispersos  
Nuvols dispersos  
   Vent: calma
Vent: calma
Temperatura: 17°C
Punt de rosada: 2°C
Humitat: 37%
Barometre: 1018 hPa
Nuvols: Few Clouds
Visibilitat: More than 10 km
Cloud details: Nuvols dispersos 2500 ft
LEGE 161300Z 00000KT 9999 FEW025 17/02 Q1018
LERS - Reus (civ/Mil), Spain
Distancia fins a l'estacio: WSW 96 km
Actualitzacio: 16-01-2018 14:00
Nuvols dispersos  
Nuvols dispersos  
   Vent: WNW 51.9 km/h<br />Gust to 51.9 km/h
Vent: WNW 51.9 km/h
Gust to 51.9 km/h
Temperatura: 18°C
Punt de rosada: 6°C
Humitat: 46%
Barometre: 1018 hPa
Nuvols: Few Clouds
Visibilitat: More than 10 km
Cloud details: Nuvols dispersos 3000 ft
LERS 161300Z 29028G41KT 250V320 9999 FEW030 18/06 Q1018
LESU - Pirineus/La Seu, Spain
Distancia fins a l'estacio: NW 121 km
Actualitzacio: 15-01-2018 17:00
NO actual
Clar  
Clar  
   Vent: varia 5.6 km/h
Vent: varia 5.6 km/h
Temperatura: 5°C
Termica: 4°C
Punt de rosada: 0°C
Humitat: 70%
Barometre: 1020 hPa
Visibilitat: More than 10 km
Cloud details: Clar ft
LESU 151600Z VRB03KT CAVOK 05/M00 Q1020
LEDA - Lleida/Alguaire, Spain
Distancia fins a l'estacio: WNW 146 km
Actualitzacio: 14-01-2018 17:00
NO actual
Parcialment ennuvolat  
Parcialment ennuvolat  
   Vent: WSW 14.8 km/h
Vent: WSW 14.8 km/h
Temperatura: 7°C
Termica: 4°C
Punt de rosada: 5°C
Humitat: 87%
Barometre: 1016 hPa
Nuvols: Mostly Cloudy
Visibilitat: More than 10 km
Cloud details: Nuvols dispersos 1500 ft,
Parcialment ennuvolat 3000 ft
LEDA 141600Z 25008KT 9999 FEW015 BKN030 07/05 Q1016
LFMP - Perpignan/Rivesa, France
Distancia fins a l'estacio: NNE 150 km
Actualitzacio: 16-01-2018 14:00
Clar  
Clar  
   Vent: WNW 46.3 km/h<br />Gust to 46.3 km/h
Vent: WNW 46.3 km/h
Gust to 46.3 km/h
Temperatura: 19°C
Punt de rosada: 7°C
Humitat: 46%
Barometre: 1017 hPa
Visibilitat: More than 10 km
Cloud details: Clar ft
LFMP 161300Z AUTO 30025G35KT CAVOK 19/07 Q1017 NOSIG
LEPA - Palma De Mallorca, Spain
Distancia fins a l'estacio: S 216 km
Actualitzacio: 16-01-2018 14:00
Clar  
Clar  
   Vent: West 35.2 km/h
Vent: West 35.2 km/h
Temperatura: 16°C
Punt de rosada: 8°C
Humitat: 59%
Barometre: 1022 hPa
Visibilitat: More than 10 km
Cloud details: Clar ft
LEPA 161300Z 26019KT CAVOK 16/08 Q1022 NOSIG
 

Guio original per  Saratoga-weather.org Adaptat per a la plantilla per  Weerstation Leuven

Trobareu la nostra informacio del temps tambe a:

Weather Underground

AWEKAS